CYWG/YWG METAR and TAF weather

Enter ICAO airport designator
Station Type Date Time Source
CYWG METAR 2020/09/19 18:00 UTC NOAA

CYWG 191800Z 14008KT 110V180 15SM SCT210 20/08 A3003 RMK CI3 SLP174 DENSITY ALT 1400FT


Station Type Date Time Source
CYWG Decoded METAR 2020/09/19 18:00 UTC NOAA

Winnipeg Int. Airportman., Canada (CYWG) 49-54N 097-14W 239M
Sep 19, 2020 - 02:00 PM EDT / 2020.09.19 1800 UTC
Wind: from the SE (140 degrees) at 9 MPH (8 KT) (direction variable):0
Visibility: 15 mile(s):0
Sky conditions: partly cloudy
Temperature: 68 F (20 C)
Dew Point: 46 F (8 C)
Relative Humidity: 45%
Pressure (altimeter): 30.03 in. Hg (1016 hPa)
ob: CYWG 191800Z 14008KT 110V180 15SM SCT210 20/08 A3003 RMK CI3 SLP174 DENSITY ALT 1400FT
cycle: 18

Station Type Date Time Source
CYWG TAF 2020/09/19 18:39 UTC NOAA

TAF CYWG 191738Z 1918/2018 13010KT P6SM SKC
BECMG 2010/2012 15015KT
FM201500 16020G30KT P6SM SCT200
RMK NXT FCST BY 200000Z

Example: see airport list